Time;durP1;ratioP1;P1;durP2;ratioP2;P2;SDS_P1;SDS_P2;PMS_P1;PMS_P2;Temp;Humidity;BMP_temperature;BMP_pressure;BME280_temperature;BME280_humidity;BME280_pressure;Samples;Min_cycle;Max_cycle;Signal;HPM_P1;HPM_P2
2021/11/22 00:00:15;;;;;;;;;;;;;;;9.49;63.04;99527.26;1686235;85;20162;-62
2021/11/22 00:02:44;;;;;;;;;;;;;;;9.50;63.10;99533.88;1686105;85;20199;-61
2021/11/22 00:05:12;;;;;;;;;;;;;;;9.52;63.13;99537.24;1686210;85;20210;-62
2021/11/22 00:07:41;;;;;;;;;;;;;;;9.52;63.09;99540.50;1686509;85;20225;-62
2021/11/22 00:10:12;;;;;;;;;;;;;;;9.50;63.09;99542.61;1644994;87;20191;-62
2021/11/22 00:12:41;;;;;;;;;;;;;;;9.50;63.18;99537.98;1677802;85;20206;-62
2021/11/22 00:15:12;;;;;;;;;;;;;;;9.51;63.21;99542.92;1678042;85;20192;-63
2021/11/22 00:17:41;;;;;;;;;;;;;;;9.50;63.29;99544.81;1644971;87;20221;-62
2021/11/22 00:20:11;;;;;;;;;;;;;;;9.50;63.25;99553.02;1678047;85;20525;-63
2021/11/22 00:22:43;;;;;;;;;;;;;;;9.49;63.29;99547.77;1678177;85;20159;-61
2021/11/22 00:25:12;;;;;;;;;;;;;;;9.47;63.36;99558.91;1677937;85;20206;-62
2021/11/22 00:27:43;;;;;;;;;;;;;;;9.46;63.48;99556.39;1657008;85;20590;-63
2021/11/22 00:30:14;;;;;;;;;;;;;;;9.46;63.54;99555.02;1678394;85;20215;-65
2021/11/22 00:33:01;;;;;;;;;;;;;;;9.44;63.58;99555.23;1695937;84;20523;-61
2021/11/22 00:35:48;;;;;;;;;;;;;;;9.43;63.63;99553.55;1694246;84;20177;-61
2021/11/22 00:38:14;;;;;;;;;;;;;;;9.42;63.73;99553.77;1662251;85;20446;-61
2021/11/22 00:40:44;;;;;;;;;;;;;;;9.43;63.80;99563.65;1696288;84;20300;-61
2021/11/22 00:43:13;;;;;;;;;;;;;;;9.43;63.86;99565.85;1696410;84;20188;-61
2021/11/22 00:45:41;;;;;;;;;;;;;;;9.42;63.97;99571.01;1667156;86;20465;-62
2021/11/22 00:48:09;;;;;;;;;;;;;;;9.43;64.03;99570.48;1686193;85;20222;-61
2021/11/22 00:50:38;;;;;;;;;;;;;;;9.42;64.08;99571.53;1696340;84;20280;-62
2021/11/22 00:53:07;;;;;;;;;;;;;;;9.41;64.12;99567.95;1666960;85;20502;-62
2021/11/22 00:55:37;;;;;;;;;;;;;;;9.40;64.18;99568.17;1686127;85;20210;-61
2021/11/22 00:58:05;;;;;;;;;;;;;;;9.36;64.25;99577.32;1686204;85;20202;-61
2021/11/22 01:00:36;;;;;;;;;;;;;;;9.33;64.39;99585.94;1686354;85;20243;-63
2021/11/22 01:03:04;;;;;;;;;;;;;;;9.31;64.49;99580.37;1696401;85;20153;-62
2021/11/22 01:05:33;;;;;;;;;;;;;;;9.30;64.62;99576.79;1667192;85;20485;-61
2021/11/22 01:08:04;;;;;;;;;;;;;;;9.30;64.68;99582.78;1686314;85;20186;-62
2021/11/22 01:10:32;;;;;;;;;;;;;;;9.31;64.73;99588.04;1686190;85;20162;-62
2021/11/22 01:13:01;;;;;;;;;;;;;;;9.30;64.80;99582.26;1686143;85;20225;-61
2021/11/22 01:15:31;;;;;;;;;;;;;;;9.33;64.84;99589.20;1686217;85;20155;-61
2021/11/22 01:18:00;;;;;;;;;;;;;;;9.34;64.89;99585.41;1686324;85;20205;-62
2021/11/22 01:20:30;;;;;;;;;;;;;;;9.32;64.88;99583.41;1686442;85;20570;-62
2021/11/22 01:23:04;;;;;;;;;;;;;;;9.32;64.92;99584.78;1706327;84;20164;-62
2021/11/22 01:25:33;;;;;;;;;;;;;;;9.28;64.98;99582.16;1676620;85;20258;-61
2021/11/22 01:28:02;;;;;;;;;;;;;;;9.26;65.04;99589.72;1694203;85;20243;-61
2021/11/22 01:30:30;;;;;;;;;;;;;;;9.25;65.07;99587.52;1694117;85;20210;-61
2021/11/22 01:32:59;;;;;;;;;;;;;;;9.26;65.15;99589.72;1706354;84;20609;-60
2021/11/22 01:35:27;;;;;;;;;;;;;;;9.26;65.19;99588.35;1676673;86;20155;-63
2021/11/22 01:37:55;;;;;;;;;;;;;;;9.24;65.13;99591.30;1693950;85;20269;-61
2021/11/22 01:40:24;;;;;;;;;;;;;;;9.23;65.19;99588.77;1693868;84;20158;-61
2021/11/22 01:42:56;;;;;;;;;;;;;;;9.23;65.21;99586.04;1693861;84;20204;-60
2021/11/22 01:45:24;;;;;;;;;;;;;;;9.20;65.34;99584.04;1693774;84;20225;-61
2021/11/22 01:47:53;;;;;;;;;;;;;;;9.16;65.36;99587.40;1693958;84;20542;-62
2021/11/22 01:50:21;;;;;;;;;;;;;;;9.13;65.49;99595.48;1694142;85;20206;-61
2021/11/22 01:52:50;;;;;;;;;;;;;;;9.12;65.61;99597.06;1693913;85;20498;-62
2021/11/22 01:55:20;;;;;;;;;;;;;;;9.08;65.67;99585.67;1694071;85;20504;-61
2021/11/22 01:57:50;;;;;;;;;;;;;;;9.05;65.73;99594.29;1693791;85;20265;-63
2021/11/22 02:00:28;;;;;;;;;;;;;;;9.02;65.85;99590.61;1694000;85;20178;-60
2021/11/22 02:02:57;;;;;;;;;;;;;;;9.02;65.94;99596.59;1694155;84;20515;-61
2021/11/22 02:05:32;;;;;;;;;;;;;;;9.00;66.00;99594.07;1693825;85;20516;-63
2021/11/22 02:08:01;;;;;;;;;;;;;;;9.00;66.07;99598.16;1693861;85;20205;-60
2021/11/22 02:10:29;;;;;;;;;;;;;;;9.01;66.10;99597.64;1693735;85;20269;-61
2021/11/22 02:12:58;;;;;;;;;;;;;;;9.02;66.12;99596.59;1706323;83;20188;-61
2021/11/22 02:15:26;;;;;;;;;;;;;;;9.01;66.14;99599.85;1676640;86;20227;-60
2021/11/22 02:17:55;;;;;;;;;;;;;;;9.01;66.20;99601.22;1694080;85;20224;-60
2021/11/22 02:20:25;;;;;;;;;;;;;;;9.00;66.27;99603.63;1706325;83;20216;-62
2021/11/22 02:22:57;;;;;;;;;;;;;;;9.01;66.35;99598.48;1676478;85;20155;-62
2021/11/22 02:25:26;;;;;;;;;;;;;;;9.00;66.41;99599.53;1693802;85;20182;-60
2021/11/22 02:27:54;;;;;;;;;;;;;;;9.00;66.40;99600.90;1693831;85;20261;-61
2021/11/22 02:30:30;;;;;;;;;;;;;;;9.00;66.41;99606.37;1693861;84;20190;-60
2021/11/22 02:32:55;;;;;;;;;;;;;;;9.00;66.42;99600.05;1693490;85;20151;-61
2021/11/22 02:35:23;;;;;;;;;;;;;;;8.97;66.47;99604.57;1693735;85;20229;-62
2021/11/22 02:37:52;;;;;;;;;;;;;;;8.97;66.52;99599.11;1693772;85;20163;-60
2021/11/22 02:40:20;;;;;;;;;;;;;;;8.96;66.55;99605.09;1694072;85;20542;-64
2021/11/22 02:42:49;;;;;;;;;;;;;;;8.95;66.61;99610.23;1694053;84;20154;-61
2021/11/22 02:45:19;;;;;;;;;;;;;;;8.93;66.67;99614.23;1693902;84;20201;-61
2021/11/22 02:47:49;;;;;;;;;;;;;;;8.91;66.76;99621.27;1693798;85;20218;-61
2021/11/22 02:50:19;;;;;;;;;;;;;;;8.90;66.82;99620.95;1693833;85;20158;-60
2021/11/22 02:52:48;;;;;;;;;;;;;;;8.89;66.87;99627.45;1693798;85;20165;-60
2021/11/22 02:55:17;;;;;;;;;;;;;;;8.87;66.90;99628.19;1693867;85;20554;-62
2021/11/22 02:57:46;;;;;;;;;;;;;;;8.87;66.97;99626.82;1693844;85;20162;-61
2021/11/22 03:00:17;;;;;;;;;;;;;;;8.82;67.06;99626.07;1693811;85;20182;-61
2021/11/22 03:02:45;;;;;;;;;;;;;;;8.80;67.14;99623.23;1693903;85;20210;-63
2021/11/22 03:05:14;;;;;;;;;;;;;;;8.77;67.31;99628.58;1706630;83;20157;-63
2021/11/22 03:07:44;;;;;;;;;;;;;;;8.77;67.41;99627.73;1676913;85;20550;-61
2021/11/22 03:10:13;;;;;;;;;;;;;;;8.77;67.50;99631.83;1706315;84;20470;-61
2021/11/22 03:12:42;;;;;;;;;;;;;;;8.78;67.52;99628.05;1693762;85;20154;-61
2021/11/22 03:15:13;;;;;;;;;;;;;;;8.77;67.65;99634.56;1694019;85;20613;-62
2021/11/22 03:17:42;;;;;;;;;;;;;;;8.74;67.74;99638.55;1694149;85;20209;-60
2021/11/22 03:20:11;;;;;;;;;;;;;;;8.74;67.87;99644.53;1693992;85;20509;-61
2021/11/22 03:22:40;;;;;;;;;;;;;;;8.74;67.89;99647.27;1687890;85;20210;-62
2021/11/22 03:25:11;;;;;;;;;;;;;;;8.74;67.94;99646.74;1686131;85;20179;-61
2021/11/22 03:27:40;;;;;;;;;;;;;;;8.73;67.96;99647.78;1696508;84;20149;-61
2021/11/22 03:30:13;;;;;;;;;;;;;;;8.72;68.03;99650.72;1666949;86;20184;-60
2021/11/22 03:32:42;;;;;;;;;;;;;;;8.72;68.09;99654.30;1686158;85;20186;-60
2021/11/22 03:35:11;;;;;;;;;;;;;;;8.72;68.20;99661.64;1686315;85;20219;-62
2021/11/22 03:37:40;;;;;;;;;;;;;;;8.72;68.18;99667.95;1696449;85;20221;-61
2021/11/22 03:40:10;;;;;;;;;;;;;;;8.71;68.16;99666.27;1667122;86;20469;-63
2021/11/22 03:45:24;;;;;;;;;;;;;;;8.74;68.17;99671.32;1662632;86;20439;-61
2021/11/22 03:47:53;;;;;;;;;;;;;;;8.75;68.12;99676.26;1678802;85;20190;-60
2021/11/22 03:50:21;;;;;;;;;;;;;;;8.72;68.12;99683.50;1696328;84;20201;-60
2021/11/22 03:52:49;;;;;;;;;;;;;;;8.70;68.09;99689.16;1667123;86;20197;-60
2021/11/22 03:55:17;;;;;;;;;;;;;;;8.68;68.12;99686.31;1686201;85;20222;-61
2021/11/22 03:57:46;;;;;;;;;;;;;;;8.66;68.26;99688.41;1686335;85;20166;-61
2021/11/22 04:00:15;;;;;;;;;;;;;;;8.67;68.26;99696.39;1696211;85;20563;-62
2021/11/22 04:02:43;;;;;;;;;;;;;;;8.69;68.26;99698.92;1696314;84;20173;-62
2021/11/22 04:05:12;;;;;;;;;;;;;;;8.68;68.25;99702.17;1667163;86;20601;-63
2021/11/22 04:07:41;;;;;;;;;;;;;;;8.66;68.32;99708.89;1696310;84;20226;-61
2021/11/22 04:10:10;;;;;;;;;;;;;;;8.65;68.31;99711.30;1696546;85;20185;-60
2021/11/22 04:12:39;;;;;;;;;;;;;;;8.63;68.31;99714.75;1667280;86;20223;-62
2021/11/22 04:15:08;;;;;;;;;;;;;;;8.62;68.34;99714.43;1686203;85;20218;-61
2021/11/22 04:17:36;;;;;;;;;;;;;;;8.61;68.27;99716.84;1686164;85;20242;-61
2021/11/22 04:20:05;;;;;;;;;;;;;;;8.58;68.22;99718.93;1696566;85;20260;-60
2021/11/22 04:22:34;;;;;;;;;;;;;;;8.56;68.17;99727.00;1702206;84;20341;-61
2021/11/22 04:25:03;;;;;;;;;;;;;;;8.54;68.21;99728.56;1676804;85;20518;-62
2021/11/22 04:27:33;;;;;;;;;;;;;;;8.53;68.18;99732.34;1706629;84;20225;-61
2021/11/22 04:30:03;;;;;;;;;;;;;;;8.52;67.98;99740.21;1693757;85;20222;-61
2021/11/22 04:32:33;;;;;;;;;;;;;;;8.49;67.53;99737.88;1694237;85;20154;-61
2021/11/22 04:35:03;;;;;;;;;;;;;;;8.47;67.13;99744.59;1693890;85;20182;-62
2021/11/22 04:37:33;;;;;;;;;;;;;;;8.41;66.86;99749.45;1706418;84;20165;-60
2021/11/22 04:40:01;;;;;;;;;;;;;;;8.37;66.62;99757.20;1706746;84;20208;-61
2021/11/22 04:42:31;;;;;;;;;;;;;;;8.35;66.38;99757.92;1676544;86;20222;-61
2021/11/22 04:44:59;;;;;;;;;;;;;;;8.32;66.22;99762.89;1694067;85;20183;-62
2021/11/22 04:47:28;;;;;;;;;;;;;;;8.28;66.03;99766.02;1706626;83;20448;-61
2021/11/22 04:49:56;;;;;;;;;;;;;;;8.24;65.98;99778.90;1676602;85;20468;-61
2021/11/22 04:52:25;;;;;;;;;;;;;;;8.22;66.09;99780.46;1693872;85;20185;-61
2021/11/22 04:54:53;;;;;;;;;;;;;;;8.24;66.08;99775.65;1706302;83;20172;-61
2021/11/22 04:57:21;;;;;;;;;;;;;;;8.25;66.10;99780.59;1676666;86;20235;-61
2021/11/22 04:59:49;;;;;;;;;;;;;;;8.23;65.99;99784.88;1693913;85;20227;-61
2021/11/22 05:02:17;;;;;;;;;;;;;;;8.21;66.06;99788.84;1693870;84;20154;-61
2021/11/22 05:04:48;;;;;;;;;;;;;;;8.21;66.07;99794.30;1706205;83;20192;-61
2021/11/22 05:07:17;;;;;;;;;;;;;;;8.22;66.03;99797.36;1706408;83;20153;-62
2021/11/22 05:09:46;;;;;;;;;;;;;;;8.19;66.01;99805.41;1676880;86;20530;-61
2021/11/22 05:12:16;;;;;;;;;;;;;;;8.15;66.13;99799.19;1693818;85;20154;-62
2021/11/22 05:14:44;;;;;;;;;;;;;;;8.14;66.27;99808.41;1693892;85;20209;-62
2021/11/22 05:17:13;;;;;;;;;;;;;;;8.11;66.30;99817.83;1694116;84;20468;-61
2021/11/22 05:19:41;;;;;;;;;;;;;;;8.13;66.40;99821.21;1693899;85;20261;-61
2021/11/22 05:22:17;;;;;;;;;;;;;;;8.15;66.31;99827.84;1693121;84;21044;-61
2021/11/22 05:24:41;;;;;;;;;;;;;;;8.12;66.38;99838.63;1691018;85;20154;-61
2021/11/22 05:27:09;;;;;;;;;;;;;;;8.10;66.51;99839.86;1691807;84;20690;-62
2021/11/22 05:29:38;;;;;;;;;;;;;;;8.08;66.57;99841.94;1684308;85;20571;-62
2021/11/22 05:32:07;;;;;;;;;;;;;;;8.06;66.60;99842.66;1683878;84;20243;-61
2021/11/22 05:34:37;;;;;;;;;;;;;;;8.06;66.74;99842.13;1683925;85;20474;-61
2021/11/22 05:37:05;;;;;;;;;;;;;;;8.08;66.72;99842.78;1684013;84;20501;-62
2021/11/22 05:39:34;;;;;;;;;;;;;;;8.09;66.72;99849.92;1691768;84;20240;-61
2021/11/22 05:42:04;;;;;;;;;;;;;;;8.10;66.74;99852.14;1683901;85;20500;-61
2021/11/22 05:44:35;;;;;;;;;;;;;;;8.10;66.86;99853.50;1692023;84;20173;-61
2021/11/22 05:47:05;;;;;;;;;;;;;;;8.12;66.82;99860.97;1684070;84;20483;-61
2021/11/22 05:49:36;;;;;;;;;;;;;;;8.12;66.85;99873.25;1691792;84;20244;-61
2021/11/22 05:52:05;;;;;;;;;;;;;;;8.13;66.82;99868.12;1691757;83;20204;-61
2021/11/22 05:54:37;;;;;;;;;;;;;;;8.15;66.75;99874.22;1683962;84;20203;-61
2021/11/22 05:57:05;;;;;;;;;;;;;;;8.17;66.52;99870.78;1691851;85;20179;-60
2021/11/22 05:59:35;;;;;;;;;;;;;;;8.14;66.47;99874.74;1683754;84;20151;-62
2021/11/22 06:02:03;;;;;;;;;;;;;;;8.13;66.56;99876.30;1683902;85;20178;-62
2021/11/22 06:04:33;;;;;;;;;;;;;;;8.14;66.49;99876.63;1691667;85;20224;-61
2021/11/22 06:07:02;;;;;;;;;;;;;;;8.15;66.30;99889.23;1691834;84;20176;-62
2021/11/22 06:09:31;;;;;;;;;;;;;;;8.13;66.28;99875.78;1683878;84;20553;-63
2021/11/22 06:11:59;;;;;;;;;;;;;;;8.13;66.04;99894.04;1691811;83;20192;-62
2021/11/22 06:14:28;;;;;;;;;;;;;;;8.12;65.59;99904.63;1683923;85;20163;-63
2021/11/22 06:16:57;;;;;;;;;;;;;;;8.11;65.29;99905.66;1691828;84;20236;-61
2021/11/22 06:19:27;;;;;;;;;;;;;;;8.08;64.91;99914.23;1692113;83;20530;-63
2021/11/22 06:21:55;;;;;;;;;;;;;;;8.05;64.77;99913.27;1683427;85;20159;-63
2021/11/22 06:24:24;;;;;;;;;;;;;;;8.03;64.65;99912.09;1676369;85;20569;-62
2021/11/22 06:26:55;;;;;;;;;;;;;;;8.04;64.32;99913.78;1696740;84;20451;-61
2021/11/22 06:29:23;;;;;;;;;;;;;;;8.07;64.04;99916.64;1666799;86;20160;-62
2021/11/22 06:31:51;;;;;;;;;;;;;;;8.09;63.67;99917.30;1686303;85;20210;-62
2021/11/22 06:34:20;;;;;;;;;;;;;;;8.13;63.44;99925.42;1685825;85;20226;-63
2021/11/22 06:36:48;;;;;;;;;;;;;;;8.14;63.20;99930.68;1686160;85;20461;-63
2021/11/22 06:39:16;;;;;;;;;;;;;;;8.16;62.72;99932.70;1686039;85;20225;-62
2021/11/22 06:41:44;;;;;;;;;;;;;;;8.19;62.55;99934.19;1686052;85;20171;-61
2021/11/22 06:44:14;;;;;;;;;;;;;;;8.20;62.32;99938.61;1686289;85;20460;-62
2021/11/22 06:46:44;;;;;;;;;;;;;;;8.20;62.23;99934.00;1696232;84;20149;-62
2021/11/22 06:49:13;;;;;;;;;;;;;;;8.24;61.97;99946.22;1696324;85;20193;-62
2021/11/22 06:51:41;;;;;;;;;;;;;;;8.24;61.47;99952.20;1696142;85;20591;-61
2021/11/22 06:54:10;;;;;;;;;;;;;;;8.22;60.89;99952.91;1666884;86;20220;-63
2021/11/22 06:56:39;;;;;;;;;;;;;;;8.18;60.15;99946.15;1686037;85;20281;-61
2021/11/22 06:59:10;;;;;;;;;;;;;;;8.14;60.18;99954.39;1686060;85;20226;-63
2021/11/22 07:01:39;;;;;;;;;;;;;;;8.13;60.28;99952.70;1686156;85;20202;-61
2021/11/22 07:04:07;;;;;;;;;;;;;;;8.15;60.23;99954.72;1696627;85;20157;-63
2021/11/22 07:06:37;;;;;;;;;;;;;;;8.13;59.78;99956.80;1666635;86;20180;-61
2021/11/22 07:09:05;;;;;;;;;;;;;;;8.13;60.04;99964.98;1685891;85;20179;-61
2021/11/22 07:11:34;;;;;;;;;;;;;;;8.15;60.15;99965.64;1696230;84;20193;-61
2021/11/22 07:14:04;;;;;;;;;;;;;;;8.16;60.18;99966.80;1666921;86;20235;-62
2021/11/22 07:16:33;;;;;;;;;;;;;;;8.19;60.28;99972.40;1686010;85;20184;-62
2021/11/22 07:19:02;;;;;;;;;;;;;;;8.22;60.19;99978.84;1686372;85;20505;-61
2021/11/22 07:21:31;;;;;;;;;;;;;;;8.22;59.85;99984.30;1686123;85;20730;-61
2021/11/22 07:24:01;;;;;;;;;;;;;;;8.23;59.83;99978.64;1690344;84;20218;-61
2021/11/22 07:26:29;;;;;;;;;;;;;;;8.25;59.50;99980.66;1691455;85;20202;-63
2021/11/22 07:29:00;;;;;;;;;;;;;;;8.29;59.49;99987.94;1690946;84;20194;-62
2021/11/22 07:31:29;;;;;;;;;;;;;;;8.35;59.05;99989.09;1691659;84;20470;-62
2021/11/22 07:33:57;;;;;;;;;;;;;;;8.46;58.95;99999.00;1692120;85;20459;-61
2021/11/22 07:36:26;;;;;;;;;;;;;;;8.56;58.08;99999.53;1684015;85;20541;-62
2021/11/22 07:38:55;;;;;;;;;;;;;;;8.64;57.77;100008.12;1691849;84;20226;-62
2021/11/22 07:41:23;;;;;;;;;;;;;;;8.66;57.31;100014.23;1683799;85;20163;-62
2021/11/22 07:43:52;;;;;;;;;;;;;;;8.67;56.87;100013.70;1691551;83;20204;-60
2021/11/22 07:46:20;;;;;;;;;;;;;;;8.66;56.07;100012.86;1683880;84;20163;-61
2021/11/22 07:48:49;;;;;;;;;;;;;;;8.60;55.78;100016.89;1683875;84;20540;-61
2021/11/22 07:51:17;;;;;;;;;;;;;;;8.54;56.34;100017.15;1691858;84;20494;-62
2021/11/22 07:53:46;;;;;;;;;;;;;;;8.52;56.25;100018.70;1684085;85;20186;-62
2021/11/22 07:56:14;;;;;;;;;;;;;;;8.53;56.45;100029.95;1683615;84;20472;-61
2021/11/22 07:58:43;;;;;;;;;;;;;;;8.55;56.18;100031.97;1683940;84;20480;-63
2021/11/22 08:01:11;;;;;;;;;;;;;;;8.54;55.90;100026.19;1691893;84;20176;-64
2021/11/22 08:03:40;;;;;;;;;;;;;;;8.53;56.18;100033.20;1691880;85;20511;-62
2021/11/22 08:06:09;;;;;;;;;;;;;;;8.54;56.29;100035.75;1683912;85;20190;-63
2021/11/22 08:08:39;;;;;;;;;;;;;;;8.58;56.00;100041.66;1691791;83;20177;-62
2021/11/22 08:13:39;;;;;;;;;;;;;;;8.60;55.29;100049.66;1683935;85;20202;-62
2021/11/22 08:16:08;;;;;;;;;;;;;;;8.60;55.42;100053.23;1684250;85;20163;-63
2021/11/22 08:18:36;;;;;;;;;;;;;;;8.63;55.59;100057.47;1691905;84;20160;-62
2021/11/22 08:21:05;;;;;;;;;;;;;;;8.66;55.64;100061.17;1683839;85;20183;-60
2021/11/22 08:23:34;;;;;;;;;;;;;;;8.66;55.20;100061.17;1698511;84;20195;-61
2021/11/22 08:26:03;;;;;;;;;;;;;;;8.63;54.61;100073.33;1676699;85;20485;-63
2021/11/22 08:28:31;;;;;;;;;;;;;;;8.60;54.98;100074.23;1693772;85;20218;-62
2021/11/22 08:31:00;;;;;;;;;;;;;;;8.56;55.12;100074.63;1693999;84;20550;-64
2021/11/22 08:33:29;;;;;;;;;;;;;;;8.54;55.69;100080.80;1706241;84;20229;-62
2021/11/22 08:35:57;;;;;;;;;;;;;;;8.50;56.07;100083.59;1676531;86;20227;-61
2021/11/22 08:38:26;;;;;;;;;;;;;;;8.47;56.21;100089.95;1706555;84;20447;-62
2021/11/22 08:40:55;;;;;;;;;;;;;;;8.39;56.34;100092.24;1693931;85;20544;-62
2021/11/22 08:43:25;;;;;;;;;;;;;;;8.34;56.49;100085.14;1693798;85;20186;-64
2021/11/22 08:45:54;;;;;;;;;;;;;;;8.32;56.57;100087.19;1694013;85;20516;-62
2021/11/22 08:48:25;;;;;;;;;;;;;;;8.30;56.58;100093.36;1693939;84;20306;-62
2021/11/22 08:50:54;;;;;;;;;;;;;;;8.26;56.94;100096.14;1694043;85;20244;-62
2021/11/22 08:53:22;;;;;;;;;;;;;;;8.27;56.96;100095.09;1693698;84;20488;-63
2021/11/22 08:55:51;;;;;;;;;;;;;;;8.30;57.09;100101.55;1693996;84;20198;-63
2021/11/22 08:58:35;;;;;;;;;;;;;;;8.32;56.90;100110.39;1707594;83;20223;-63
2021/11/22 09:01:12;;;;;;;;;;;;;;;8.32;57.31;100112.27;1724450;83;20596;-65
2021/11/22 09:03:45;;;;;;;;;;;;;;;8.31;56.70;100107.33;1724178;83;20202;-65
2021/11/22 09:06:16;;;;;;;;;;;;;;;8.28;56.61;100106.34;1724232;83;20164;-64
2021/11/22 09:08:52;;;;;;;;;;;;;;;8.27;56.88;100109.59;1724178;83;20184;-62
2021/11/22 09:11:37;;;;;;;;;;;;;;;8.32;57.25;100117.21;1723993;83;20454;-64
2021/11/22 09:14:06;;;;;;;;;;;;;;;8.34;57.16;100111.59;1724293;83;20282;-63
2021/11/22 09:16:34;;;;;;;;;;;;;;;8.31;57.27;100111.42;1723344;83;20168;-63
2021/11/22 09:19:03;;;;;;;;;;;;;;;8.31;57.33;100112.79;1707692;83;20480;-61
2021/11/22 09:21:32;;;;;;;;;;;;;;;8.34;57.44;100117.91;1708505;83;20163;-62
2021/11/22 09:24:08;;;;;;;;;;;;;;;8.37;57.26;100116.67;1705030;83;20215;-63
2021/11/22 09:35:34;;;;;;;;;;;;;;;8.42;57.44;100116.95;1737520;82;20185;-62
2021/11/22 09:38:05;;;;;;;;;;;;;;;8.40;56.30;100126.70;1726471;83;20220;-63
2021/11/22 09:40:33;;;;;;;;;;;;;;;8.33;56.25;100127.12;1711392;82;20198;-63
2021/11/22 09:43:02;;;;;;;;;;;;;;;8.31;56.51;100122.86;1727276;82;20209;-65
2021/11/22 09:45:31;;;;;;;;;;;;;;;8.27;56.78;100128.70;1711963;82;20201;-63
2021/11/22 09:48:02;;;;;;;;;;;;;;;8.25;56.83;100120.38;1726332;82;20217;-63
2021/11/22 09:50:32;;;;;;;;;;;;;;;8.25;56.97;100124.47;1711892;84;20174;-63
2021/11/22 09:53:14;;;;;;;;;;;;;;;8.25;57.00;100117.64;1728539;82;20154;-62
2021/11/22 09:55:43;;;;;;;;;;;;;;;8.25;57.16;100124.47;1712159;82;20154;-63
2021/11/22 09:58:12;;;;;;;;;;;;;;;8.25;57.28;100134.02;1728035;82;20463;-63
2021/11/22 10:00:43;;;;;;;;;;;;;;;8.28;57.31;100121.36;1711912;84;20549;-63
2021/11/22 10:03:14;;;;;;;;;;;;;;;8.28;56.60;100124.94;1727799;82;20196;-62
2021/11/22 10:05:43;;;;;;;;;;;;;;;8.29;56.33;100127.14;1727428;83;20157;-63
2021/11/22 10:08:16;;;;;;;;;;;;;;;8.30;56.36;100128.84;1711251;82;20180;-63
2021/11/22 10:10:57;;;;;;;;;;;;;;;8.29;56.31;100124.41;1729339;82;20233;-62
2021/11/22 10:13:41;;;;;;;;;;;;;;;8.26;56.56;100131.62;1711859;83;20178;-63
2021/11/22 10:16:21;;;;;;;;;;;;;;;8.25;56.58;100124.47;1729830;82;20657;-62
2021/11/22 10:18:59;;;;;;;;;;;;;;;8.24;56.26;100128.23;1712155;84;20185;-63
2021/11/22 10:21:29;;;;;;;;;;;;;;;8.19;56.51;100126.07;1681945;84;20167;-62
2021/11/22 10:24:00;;;;;;;;;;;;;;;8.18;56.74;100127.63;1727891;82;20182;-63
2021/11/22 10:26:46;;;;;;;;;;;;;;;8.20;56.49;100118.73;1727409;82;20179;-63
2021/11/22 10:29:31;;;;;;;;;;;;;;;8.22;56.64;100119.38;1711885;82;20217;-63
2021/11/22 10:32:02;;;;;;;;;;;;;;;8.24;56.74;100121.41;1767123;81;20543;-63
2021/11/22 10:34:39;;;;;;;;;;;;;;;8.26;56.30;100123.43;1770923;80;20175;-63
2021/11/22 10:37:06;;;;;;;;;;;;;;;8.23;55.90;100126.53;1771006;81;20489;-62
2021/11/22 10:39:36;;;;;;;;;;;;;;;8.15;55.68;100135.67;1771048;81;20156;-63
2021/11/22 10:42:08;;;;;;;;;;;;;;;8.11;55.79;100122.59;1770923;81;20533;-63
2021/11/22 10:44:37;;;;;;;;;;;;;;;8.13;56.07;100125.98;1767473;81;20215;-62
2021/11/22 10:47:11;;;;;;;;;;;;;;;8.15;55.88;100122.02;1770921;81;20136;-61
2021/11/22 10:49:47;;;;;;;;;;;;;;;8.15;56.02;100122.55;1771335;81;20156;-62
2021/11/22 10:52:16;;;;;;;;;;;;;;;8.16;56.12;100127.81;1770907;81;20215;-59
2021/11/22 10:55:10;;;;;;;;;;;;;;;8.17;56.34;100128.66;1770889;81;20152;-62
2021/11/22 10:57:47;;;;;;;;;;;;;;;8.14;56.29;100119.48;1771047;80;20222;-62
2021/11/22 11:00:28;;;;;;;;;;;;;;;8.13;56.37;100128.70;1770924;81;20212;-63
2021/11/22 11:02:54;;;;;;;;;;;;;;;8.15;56.48;100132.94;1761319;81;20228;-63
2021/11/22 11:05:29;;;;;;;;;;;;;;;8.19;56.42;100134.77;1771108;81;20542;-61
2021/11/22 11:08:10;;;;;;;;;;;;;;;8.18;56.11;100131.72;1770767;81;20176;-62
2021/11/22 11:10:39;;;;;;;;;;;;;;;8.18;56.01;100135.30;1770669;80;20155;-64
2021/11/22 11:13:10;;;;;;;;;;;;;;;8.20;55.68;100140.05;1766980;81;20228;-62
2021/11/22 11:15:39;;;;;;;;;;;;;;;8.23;55.48;100138.82;1744042;81;20259;-63
2021/11/22 11:18:22;;;;;;;;;;;;;;;8.25;55.44;100139.48;1770950;81;20156;-62
2021/11/22 11:20:51;;;;;;;;;;;;;;;8.28;55.35;100133.64;1771011;81;20195;-61
2021/11/22 11:23:19;;;;;;;;;;;;;;;8.31;55.53;100140.60;1771207;81;20780;-61
2021/11/22 11:25:48;;;;;;;;;;;;;;;8.33;55.50;100150.33;1770827;81;20159;-62
2021/11/22 11:28:18;;;;;;;;;;;;;;;8.34;55.61;100145.20;1770317;81;20172;-63
2021/11/22 11:30:48;;;;;;;;;;;;;;;8.33;55.36;100148.09;1769857;81;20192;-63
2021/11/22 11:33:17;;;;;;;;;;;;;;;8.26;55.70;100148.84;1765696;81;20235;-61
2021/11/22 11:35:48;;;;;;;;;;;;;;;8.27;55.86;100144.23;1763922;81;20268;-62
2021/11/22 11:41:35;;;;;;;;;;;;;;;8.24;56.01;100150.06;1741713;82;20552;-63
2021/11/22 11:44:29;;;;;;;;;;;;;;;8.24;56.01;100150.06;1719499;83;20276;-63
2021/11/22 11:47:13;;;;;;;;;;;;;;;8.23;56.09;100156.56;1673453;85;20270;-66
2021/11/22 11:49:42;;;;;;;;;;;;;;;8.18;55.78;100152.19;1654337;85;20294;-65
2021/11/22 11:52:27;;;;;;;;;;;;;;;8.13;55.66;100151.91;1674247;84;20264;-61
2021/11/22 11:54:56;;;;;;;;;;;;;;;8.09;55.81;100153.31;1645115;85;20463;-62
2021/11/22 11:57:27;;;;;;;;;;;;;;;8.09;55.95;100158.25;1686459;85;20219;-61
2021/11/22 11:59:57;;;;;;;;;;;;;;;8.08;55.98;100162.53;1686299;84;20184;-62
2021/11/22 12:02:30;;;;;;;;;;;;;;;8.06;55.52;100153.17;1681478;85;20161;-61
2021/11/22 12:05:00;;;;;;;;;;;;;;;8.05;55.71;100158.81;1679350;85;20177;-63
2021/11/22 12:07:33;;;;;;;;;;;;;;;8.07;55.75;100156.75;1679353;85;20177;-62
2021/11/22 12:10:23;;;;;;;;;;;;;;;8.07;55.38;100154.87;1679350;85;20938;-61
2021/11/22 12:13:05;;;;;;;;;;;;;;;8.05;55.27;100158.30;1679259;85;20184;-62
2021/11/22 12:15:48;;;;;;;;;;;;;;;7.99;54.40;100165.02;1571414;90;20268;-62
2021/11/22 12:18:32;;;;;;;;;;;;;;;7.92;54.96;100164.41;1568883;91;20244;-61
2021/11/22 12:21:04;;;;;;;;;;;;;;;7.92;55.25;100172.59;1571416;91;20223;-62
2021/11/22 12:23:43;;;;;;;;;;;;;;;7.92;54.55;100173.11;1571719;91;20542;-63
2021/11/22 12:26:13;;;;;;;;;;;;;;;7.88;54.62;100168.53;1586021;90;20225;-63
2021/11/22 12:28:42;;;;;;;;;;;;;;;7.88;54.73;100168.53;1589575;90;20222;-62
2021/11/22 12:31:23;;;;;;;;;;;;;;;7.90;54.42;100175.17;1588761;90;20221;-62
2021/11/22 12:34:03;;;;;;;;;;;;;;;7.90;53.92;100172.44;1653014;84;20165;-63
2021/11/22 12:36:33;;;;;;;;;;;;;;;7.89;53.88;100170.23;1765768;81;20152;-63
2021/11/22 12:39:08;;;;;;;;;;;;;;;7.90;53.00;100172.44;1766454;81;20191;-63
2021/11/22 12:41:39;;;;;;;;;;;;;;;7.88;52.87;100178.09;1769436;80;20219;-63
2021/11/22 12:44:15;;;;;;;;;;;;;;;7.88;52.60;100175.36;1770911;81;20319;-61
2021/11/22 12:46:57;;;;;;;;;;;;;;;7.85;52.97;100176.25;1770859;80;20147;-62
2021/11/22 12:52:27;;;;;;;;;;;;;;;7.93;53.62;100181.10;1771104;81;20453;-63
2021/11/22 12:58:13;;;;;;;;;;;;;;;7.94;54.66;100181.44;1770804;80;20465;-63
2021/11/22 13:01:00;;;;;;;;;;;;;;;7.93;55.19;100192.02;1771056;81;20544;-63
2021/11/22 13:03:37;;;;;;;;;;;;;;;7.92;55.57;100193.05;1770838;80;20236;-63
2021/11/22 13:06:26;;;;;;;;;;;;;;;7.91;55.74;100206.87;1770371;81;20195;-64
2021/11/22 13:12:02;;;;;;;;;;;;;;;7.82;56.18;100195.19;1770999;80;20567;-63
2021/11/22 13:23:30;;;;;;;;;;;;;;;7.59;56.72;100203.37;1770544;81;20215;-63
2021/11/22 13:26:21;;;;;;;;;;;;;;;7.57;56.69;100200.50;1770534;81;20493;-64
2021/11/22 13:29:07;;;;;;;;;;;;;;;7.54;56.11;100197.63;1770707;81;20156;-62
2021/11/22 13:40:26;;;;;;;;;;;;;;;7.47;55.66;100217.63;1763399;81;20144;-62
2021/11/22 13:43:07;;;;;;;;;;;;;;;7.43;55.44;100219.02;1763346;81;20215;-63
2021/11/22 13:45:36;;;;;;;;;;;;;;;7.38;55.32;100212.75;1763252;81;20152;-67
2021/11/22 13:48:05;;;;;;;;;;;;;;;7.27;55.65;100229.01;1762992;81;20199;-64
2021/11/22 13:50:42;;;;;;;;;;;;;;;7.21;55.56;100225.64;1763365;81;20177;-63
2021/11/22 13:53:13;;;;;;;;;;;;;;;7.22;55.92;100227.34;1694589;84;20265;-63
2021/11/22 13:55:42;;;;;;;;;;;;;;;7.22;55.69;100227.34;1696702;84;20532;-60